createdAt,value
2022-10-28T00:02:03.087Z,73.63
2022-10-28T00:04:04.981Z,73.55
2022-10-28T00:06:18.081Z,73.30
2022-10-28T00:08:19.744Z,73.62
2022-10-28T00:10:21.367Z,73.89
2022-10-28T00:12:22.993Z,73.62
2022-10-28T00:14:25.178Z,73.62
2022-10-28T00:16:29.332Z,74.02
2022-10-28T00:18:31.134Z,73.91
2022-10-28T00:20:32.811Z,73.69
2022-10-28T00:22:34.497Z,73.66
2022-10-28T00:24:36.238Z,73.40
2022-10-28T00:26:42.255Z,73.43
2022-10-28T00:28:46.926Z,73.50
2022-10-28T00:30:48.626Z,73.52
2022-10-28T00:32:50.579Z,73.78
2022-10-28T00:34:52.700Z,73.71
2022-10-28T00:36:54.368Z,73.57
2022-10-28T00:38:56.857Z,73.46
2022-10-28T00:40:58.487Z,73.67
2022-10-28T00:43:00.159Z,73.80
2022-10-28T00:45:03.354Z,73.70
2022-10-28T00:47:12.771Z,73.70
2022-10-28T00:49:24.957Z,73.99
2022-10-28T00:51:28.666Z,73.65
2022-10-28T00:53:32.399Z,74.09
2022-10-28T00:55:35.827Z,74.20
2022-10-28T00:57:38.436Z,74.12
2022-10-28T00:59:46.015Z,74.48
2022-10-28T01:01:48.129Z,74.45
2022-10-28T01:03:49.841Z,74.20
2022-10-28T01:05:52.918Z,74.34
2022-10-28T01:07:59.533Z,74.38
2022-10-28T01:10:01.177Z,74.38
2022-10-28T01:12:16.246Z,74.13
2022-10-28T01:15:10.770Z,74.45
2022-10-28T01:17:47.362Z,74.30
2022-10-28T01:20:23.058Z,74.33
2022-10-28T01:24:53.038Z,74.63
2022-10-28T01:27:39.160Z,74.67
2022-10-28T01:29:49.899Z,74.62
2022-10-28T01:31:54.037Z,74.65
2022-10-28T01:34:01.645Z,74.74
2022-10-28T01:36:13.900Z,74.63
2022-10-28T01:38:32.795Z,74.27
2022-10-28T01:40:42.206Z,74.71
2022-10-28T01:43:01.319Z,74.87
2022-10-28T01:45:14.230Z,74.85
2022-10-28T01:48:00.434Z,74.99
2022-10-28T01:50:51.488Z,74.96
2022-10-28T01:52:59.320Z,74.92
2022-10-28T01:55:13.529Z,75.12
2022-10-28T01:57:18.326Z,75.37
2022-10-28T01:59:23.538Z,75.27
2022-10-28T02:01:27.496Z,75.13
2022-10-28T02:03:29.282Z,75.54
2022-10-28T02:05:48.777Z,75.65
2022-10-28T02:07:54.520Z,75.61
2022-10-28T02:10:10.258Z,75.58
2022-10-28T02:12:26.768Z,75.67
2022-10-28T02:14:43.143Z,75.48
2022-10-28T02:16:53.507Z,75.89
2022-10-28T02:19:16.536Z,75.66
2022-10-28T02:21:30.168Z,75.88
2022-10-28T02:23:46.794Z,75.77
2022-10-28T02:25:48.566Z,75.54
2022-10-28T02:28:04.596Z,75.53
2022-10-28T02:30:09.294Z,75.56
2022-10-28T02:32:19.837Z,75.87
2022-10-28T02:34:33.749Z,75.93
2022-10-28T02:36:40.469Z,76.04
2022-10-28T02:38:52.358Z,76.05
2022-10-28T02:40:58.440Z,76.41
2022-10-28T02:43:03.953Z,76.29
2022-10-28T02:45:15.135Z,76.22
2022-10-28T02:47:24.243Z,75.64
2022-10-28T02:49:28.407Z,75.75
2022-10-28T02:51:35.511Z,75.46
2022-10-28T02:53:56.523Z,75.33
2022-10-28T02:56:02.397Z,75.05
2022-10-28T02:58:05.883Z,75.71
2022-10-28T03:00:16.483Z,75.32
2022-10-28T03:02:18.270Z,75.11
2022-10-28T03:04:20.091Z,74.91
2022-10-28T03:06:23.078Z,74.62
2022-10-28T03:08:25.439Z,74.69
2022-10-28T03:10:27.156Z,74.42
2022-10-28T03:12:28.832Z,74.38
2022-10-28T03:14:30.497Z,74.41
2022-10-28T03:16:32.129Z,74.90
2022-10-28T03:18:33.885Z,74.68
2022-10-28T03:20:35.540Z,74.47
2022-10-28T03:22:37.213Z,74.33
2022-10-28T03:24:38.912Z,74.53
2022-10-28T03:26:40.670Z,74.42
2022-10-28T03:28:42.321Z,74.38
2022-10-28T03:30:44.118Z,74.53
2022-10-28T03:32:45.756Z,74.57
2022-10-28T03:34:47.627Z,74.68
2022-10-28T03:36:49.243Z,74.96
2022-10-28T03:38:50.857Z,74.98
2022-10-28T03:40:52.543Z,74.82
2022-10-28T03:42:54.535Z,74.63
2022-10-28T03:44:56.253Z,75.13
2022-10-28T03:46:58.514Z,74.89
2022-10-28T03:49:00.101Z,75.13
2022-10-28T03:51:01.874Z,75.29
2022-10-28T03:53:03.673Z,75.17
2022-10-28T03:55:05.802Z,75.13
2022-10-28T03:57:07.409Z,75.24
2022-10-28T03:59:09.974Z,75.09
2022-10-28T04:01:11.660Z,75.15
2022-10-28T04:03:13.388Z,75.27
2022-10-28T04:05:15.529Z,75.28
2022-10-28T04:07:17.144Z,74.94
2022-10-28T04:09:18.852Z,75.10
2022-10-28T04:11:20.494Z,75.42
2022-10-28T04:13:22.115Z,75.39
2022-10-28T04:15:24.013Z,75.37
2022-10-28T04:17:25.655Z,75.82
2022-10-28T04:19:27.301Z,75.78
2022-10-28T04:21:29.034Z,75.66
2022-10-28T04:23:30.794Z,75.56
2022-10-28T04:25:32.713Z,75.70
2022-10-28T04:27:34.311Z,75.83
2022-10-28T04:29:36.327Z,76.08
2022-10-28T04:31:37.979Z,76.09
2022-10-28T04:33:39.652Z,76.05
2022-10-28T04:35:43.298Z,76.24
2022-10-28T04:37:45.009Z,76.72
2022-10-28T04:39:46.679Z,76.40
2022-10-28T04:41:48.490Z,76.81
2022-10-28T04:43:50.156Z,76.71
2022-10-28T04:45:52.714Z,76.79
2022-10-28T04:48:01.410Z,76.56
2022-10-28T04:50:06.477Z,76.54
2022-10-28T04:52:09.791Z,77.11
2022-10-28T04:54:13.712Z,76.72
2022-10-28T04:56:15.368Z,76.80
2022-10-28T04:58:17.022Z,76.67
2022-10-28T05:00:18.706Z,76.39
2022-10-28T05:02:23.080Z,76.37
2022-10-28T05:04:24.791Z,76.53
2022-10-28T05:06:26.405Z,76.68
2022-10-28T05:08:28.034Z,76.64
2022-10-28T05:10:30.803Z,76.49
2022-10-28T05:12:32.416Z,76.65
2022-10-28T05:14:34.087Z,76.48
2022-10-28T05:16:35.811Z,76.04
2022-10-28T05:18:37.555Z,76.19
2022-10-28T05:20:39.207Z,75.98
2022-10-28T05:22:53.170Z,76.34
2022-10-28T05:24:56.148Z,76.02
2022-10-28T05:26:59.939Z,76.27
2022-10-28T05:29:01.564Z,76.37
2022-10-28T05:31:03.210Z,76.84
2022-10-28T05:33:05.127Z,76.53
2022-10-28T05:35:07.836Z,76.83
2022-10-28T05:37:09.439Z,76.44
2022-10-28T05:39:12.820Z,76.07
2022-10-28T05:41:14.494Z,76.09
2022-10-28T05:43:16.109Z,75.97
2022-10-28T05:45:17.818Z,76.31
2022-10-28T05:47:19.824Z,75.73
2022-10-28T05:49:21.582Z,75.61
2022-10-28T05:51:23.332Z,75.42
2022-10-28T05:53:25.098Z,75.00
2022-10-28T05:55:28.485Z,74.96
2022-10-28T05:57:30.442Z,74.61
2022-10-28T05:59:32.137Z,74.55
2022-10-28T06:01:33.820Z,74.12
2022-10-28T06:03:35.791Z,74.26
2022-10-28T06:05:42.039Z,74.13
2022-10-28T06:07:43.793Z,73.89
2022-10-28T06:09:45.572Z,73.89
2022-10-28T06:12:06.867Z,73.80
2022-10-28T06:14:08.613Z,73.84
2022-10-28T06:16:10.293Z,73.72
2022-10-28T06:18:15.448Z,73.52
2022-10-28T06:20:19.954Z,73.46
2022-10-28T06:22:21.786Z,73.51
2022-10-28T06:24:23.501Z,73.21
2022-10-28T06:26:25.334Z,73.06
2022-10-28T06:28:28.085Z,72.79
2022-10-28T06:30:29.854Z,72.59
2022-10-28T06:32:32.401Z,72.66
2022-10-28T06:34:34.044Z,72.88
2022-10-28T06:36:35.762Z,72.54
2022-10-28T06:38:37.426Z,72.41
2022-10-28T06:40:39.104Z,72.33
2022-10-28T06:42:40.739Z,72.33
2022-10-28T06:44:42.564Z,72.26
2022-10-28T06:46:45.736Z,72.11
2022-10-28T06:48:48.131Z,72.30
2022-10-28T06:50:50.004Z,72.18
2022-10-28T06:52:52.097Z,72.23
2022-10-28T06:54:53.834Z,72.30
2022-10-28T06:56:55.451Z,72.24
2022-10-28T06:58:57.347Z,72.28
2022-10-28T07:01:03.634Z,72.25
2022-10-28T07:03:05.426Z,72.46
2022-10-28T07:05:07.824Z,72.31
2022-10-28T07:07:09.615Z,72.73
2022-10-28T07:09:14.383Z,72.35
2022-10-28T07:11:16.344Z,72.38
2022-10-28T07:13:17.962Z,72.66
2022-10-28T07:15:19.655Z,72.61
2022-10-28T07:17:21.314Z,72.82
2022-10-28T07:19:22.961Z,72.42
2022-10-28T07:21:28.554Z,72.37
2022-10-28T07:23:34.349Z,72.50
2022-10-28T07:25:36.245Z,72.26
2022-10-28T07:27:37.902Z,72.29
2022-10-28T07:29:39.697Z,71.96
2022-10-28T07:31:41.332Z,72.29
2022-10-28T07:33:44.300Z,72.31
2022-10-28T07:35:45.937Z,72.15
2022-10-28T07:37:47.649Z,71.95
2022-10-28T07:39:49.258Z,71.98
2022-10-28T07:41:50.887Z,72.04
2022-10-28T07:43:52.737Z,71.91
2022-10-28T07:45:58.308Z,71.91
2022-10-28T07:48:00.038Z,71.66
2022-10-28T07:50:17.126Z,71.61
2022-10-28T07:52:18.768Z,71.57
2022-10-28T07:54:20.644Z,71.49
2022-10-28T07:56:22.354Z,71.18
2022-10-28T07:58:24.471Z,71.19
2022-10-28T08:00:26.158Z,71.33
2022-10-28T08:02:27.840Z,71.19
2022-10-28T08:04:32.976Z,70.91
2022-10-28T08:06:36.075Z,71.09
2022-10-28T08:08:38.766Z,70.96
2022-10-28T08:10:40.512Z,70.96
2022-10-28T08:12:42.260Z,70.95
2022-10-28T08:14:44.224Z,70.88
2022-10-28T08:16:46.513Z,70.98
2022-10-28T08:18:48.224Z,70.95
2022-10-28T08:20:49.902Z,70.87
2022-10-28T08:22:52.071Z,70.93
2022-10-28T08:24:54.001Z,70.90
2022-10-28T08:26:55.847Z,70.95
2022-10-28T08:28:58.293Z,70.75
2022-10-28T08:31:09.399Z,70.72
2022-10-28T08:33:11.422Z,70.59
2022-10-28T08:35:13.309Z,70.50
2022-10-28T08:37:16.381Z,70.65
2022-10-28T08:39:18.130Z,70.74
2022-10-28T08:41:28.521Z,70.61
2022-10-28T08:43:56.669Z,70.10
2022-10-28T08:46:38.057Z,71.32
2022-10-28T08:48:40.455Z,70.77
2022-10-28T08:50:58.674Z,70.66
2022-10-28T08:53:17.565Z,70.47
2022-10-28T08:55:24.535Z,69.92
2022-10-28T08:57:32.574Z,69.37
2022-10-28T08:59:39.012Z,69.14
2022-10-28T09:01:56.794Z,69.12
2022-10-28T09:04:05.886Z,68.12
2022-10-28T09:06:09.521Z,68.18
2022-10-28T09:08:33.860Z,67.71
2022-10-28T09:11:14.025Z,67.60
2022-10-28T09:13:37.108Z,67.45
2022-10-28T09:16:02.248Z,67.34
2022-10-28T09:18:15.860Z,66.70
2022-10-28T09:20:26.358Z,66.41
2022-10-28T09:22:49.759Z,65.82
2022-10-28T09:25:02.653Z,65.40
2022-10-28T09:27:23.131Z,65.11
2022-10-28T09:29:43.288Z,65.14
2022-10-28T09:32:23.984Z,64.84
2022-10-28T09:34:34.567Z,64.05
2022-10-28T09:36:45.249Z,63.73
2022-10-28T09:38:47.255Z,63.55
2022-10-28T09:40:54.329Z,63.24
2022-10-28T09:43:02.986Z,63.66
2022-10-28T09:45:11.743Z,63.13
2022-10-28T09:47:17.629Z,62.59
2022-10-28T09:49:25.452Z,62.49
2022-10-28T09:51:54.680Z,63.11
2022-10-28T09:54:01.500Z,62.94
2022-10-28T09:56:06.363Z,62.81
2022-10-28T09:58:11.712Z,62.66
2022-10-28T10:00:16.125Z,62.20
2022-10-28T10:02:32.215Z,62.26
2022-10-28T10:04:36.057Z,62.11
2022-10-28T10:06:39.699Z,62.04
2022-10-28T10:08:42.195Z,62.00
2022-10-28T10:10:54.635Z,61.40
2022-10-28T10:13:01.815Z,61.31
2022-10-28T10:15:07.085Z,60.16
2022-10-28T10:17:32.929Z,59.73
2022-10-28T10:20:05.128Z,59.82
2022-10-28T10:22:06.896Z,59.81
2022-10-28T10:24:25.865Z,59.88
2022-10-28T10:26:33.348Z,59.97
2022-10-28T10:28:43.945Z,59.79
2022-10-28T10:30:51.323Z,59.52
2022-10-28T10:32:53.941Z,59.19
2022-10-28T10:35:15.744Z,59.38
2022-10-28T10:37:21.072Z,59.35
2022-10-28T10:39:35.246Z,58.92
2022-10-28T10:41:44.430Z,58.58
2022-10-28T10:43:46.170Z,58.33
2022-10-28T10:46:11.164Z,58.23
2022-10-28T10:48:16.255Z,57.99
2022-10-28T10:50:24.786Z,57.87
2022-10-28T10:52:28.286Z,58.10
2022-10-28T10:54:32.710Z,58.25
2022-10-28T10:56:34.476Z,58.50
2022-10-28T10:58:40.585Z,58.63
2022-10-28T11:00:50.609Z,57.98
2022-10-28T11:02:55.790Z,58.06
2022-10-28T11:05:10.051Z,57.12
2022-10-28T11:07:15.903Z,57.30
2022-10-28T11:09:35.661Z,57.52
2022-10-28T11:11:39.800Z,57.07
2022-10-28T11:13:45.169Z,56.97
2022-10-28T11:16:00.018Z,55.96
2022-10-28T11:18:20.807Z,56.11
2022-10-28T11:20:44.099Z,56.63
2022-10-28T11:23:26.859Z,56.01
2022-10-28T11:25:36.607Z,55.84
2022-10-28T11:27:58.787Z,55.54
2022-10-28T11:30:08.882Z,55.74
2022-10-28T11:32:28.425Z,55.93
2022-10-28T11:34:54.224Z,55.61
2022-10-28T11:37:25.035Z,55.73
2022-10-28T11:39:36.813Z,55.79
2022-10-28T11:42:09.976Z,56.14
2022-10-28T11:44:57.028Z,55.76
2022-10-28T11:47:39.107Z,56.07
2022-10-28T11:50:30.957Z,56.38
2022-10-28T11:53:18.163Z,56.30
2022-10-28T11:55:57.628Z,56.25
2022-10-28T11:58:25.454Z,56.33
2022-10-28T12:01:06.837Z,56.55
2022-10-28T12:04:02.770Z,56.87
2022-10-28T12:06:38.969Z,56.66
2022-10-28T12:08:49.252Z,56.66
2022-10-28T12:11:03.957Z,56.71
2022-10-28T12:13:52.821Z,56.25
2022-10-28T12:16:23.061Z,55.28
2022-10-28T12:19:00.111Z,55.20
2022-10-28T12:21:41.653Z,54.89
2022-10-28T12:23:44.533Z,54.51
2022-10-28T12:25:50.224Z,54.23
2022-10-28T12:28:09.993Z,54.85
2022-10-28T12:30:54.295Z,54.54
2022-10-28T12:33:42.626Z,54.38
2022-10-28T12:36:43.837Z,53.90
2022-10-28T12:39:43.872Z,53.50
2022-10-28T12:42:33.746Z,53.80
2022-10-28T12:44:38.396Z,53.42
2022-10-28T12:46:54.895Z,53.44
2022-10-28T12:49:04.632Z,52.78
2022-10-28T12:51:57.669Z,52.65
2022-10-28T12:54:28.885Z,52.44
2022-10-28T12:57:16.092Z,52.49
2022-10-28T12:59:20.342Z,52.59
2022-10-28T13:01:27.229Z,52.45
2022-10-28T13:03:54.639Z,52.80
2022-10-28T13:06:29.592Z,52.49
2022-10-28T13:09:25.180Z,52.02
2022-10-28T13:12:22.262Z,52.26
2022-10-28T13:14:38.260Z,51.90
2022-10-28T13:17:02.977Z,51.52
2022-10-28T13:19:17.739Z,52.08
2022-10-28T13:22:00.669Z,52.33
2022-10-28T13:24:26.864Z,52.08
2022-10-28T13:26:34.861Z,51.75
2022-10-28T13:28:44.685Z,52.01
2022-10-28T13:30:58.728Z,51.23
2022-10-28T13:33:07.861Z,51.41
2022-10-28T13:35:22.736Z,51.42
2022-10-28T13:37:28.128Z,51.41
2022-10-28T13:39:29.795Z,51.44
2022-10-28T13:41:44.768Z,51.45
2022-10-28T13:43:49.573Z,52.07
2022-10-28T13:46:20.239Z,51.76
2022-10-28T13:49:06.798Z,51.98
2022-10-28T13:54:09.417Z,52.25
2022-10-28T13:56:43.895Z,52.44
2022-10-28T13:59:04.052Z,52.30
2022-10-28T14:02:28.473Z,52.38
2022-10-28T14:04:59.812Z,52.40
2022-10-28T14:07:20.024Z,52.38
2022-10-28T14:09:56.492Z,52.45
2022-10-28T14:12:35.477Z,52.43
2022-10-28T14:15:38.293Z,52.39
2022-10-28T14:18:42.950Z,52.57
2022-10-28T14:20:46.042Z,51.44
2022-10-28T14:22:48.235Z,51.05
2022-10-28T14:25:19.822Z,50.60
2022-10-28T14:28:06.502Z,50.62
2022-10-28T14:30:20.497Z,50.09
2022-10-28T14:32:43.628Z,49.10
2022-10-28T14:35:15.758Z,48.76
2022-10-28T14:38:10.716Z,46.96
2022-10-28T14:40:40.759Z,45.31
2022-10-28T14:43:35.681Z,44.74
2022-10-28T14:45:45.713Z,43.63
2022-10-28T14:48:00.787Z,41.58
2022-10-28T14:50:15.508Z,41.66
2022-10-28T14:52:20.989Z,41.70
2022-10-28T14:54:40.873Z,40.80
2022-10-28T14:56:44.733Z,40.31
2022-10-28T14:58:47.669Z,40.24
2022-10-28T15:01:08.539Z,39.28
2022-10-28T15:03:12.800Z,39.51
2022-10-28T15:05:20.877Z,39.42
2022-10-28T15:07:24.399Z,39.20
2022-10-28T15:09:30.838Z,39.21
2022-10-28T15:11:34.809Z,39.84
2022-10-28T15:13:37.325Z,39.87
2022-10-28T15:15:40.474Z,40.07
2022-10-28T15:17:44.292Z,39.89
2022-10-28T15:19:50.448Z,40.19
2022-10-28T15:22:02.597Z,39.87
2022-10-28T15:24:07.577Z,40.22
2022-10-28T15:26:12.805Z,40.06
2022-10-28T15:28:15.397Z,40.50
2022-10-28T15:30:21.375Z,39.75
2022-10-28T15:32:24.366Z,40.28
2022-10-28T15:34:30.423Z,40.83
2022-10-28T15:36:33.236Z,41.62
2022-10-28T15:38:39.963Z,41.77
2022-10-28T15:40:42.551Z,41.24
2022-10-28T15:42:53.500Z,41.46
2022-10-28T15:44:57.346Z,41.43
2022-10-28T15:47:02.035Z,41.43
2022-10-28T15:49:04.739Z,41.61
2022-10-28T15:51:17.787Z,42.00
2022-10-28T15:53:32.665Z,42.32
2022-10-28T15:56:08.517Z,42.63
2022-10-28T15:58:23.618Z,42.96
2022-10-28T16:00:30.583Z,42.72
2022-10-28T16:02:42.511Z,42.75
2022-10-28T16:04:45.404Z,43.06
2022-10-28T16:06:52.555Z,43.24
2022-10-28T16:09:01.243Z,43.92
2022-10-28T16:11:07.339Z,43.95
2022-10-28T16:13:18.549Z,43.94
2022-10-28T16:15:21.935Z,45.26
2022-10-28T16:17:27.448Z,44.23
2022-10-28T16:19:35.811Z,44.28
2022-10-28T16:21:39.688Z,44.31
2022-10-28T16:23:44.260Z,43.92
2022-10-28T16:25:47.067Z,43.53
2022-10-28T16:27:50.849Z,43.25
2022-10-28T16:29:53.856Z,43.55
2022-10-28T16:31:57.463Z,43.13
2022-10-28T16:34:01.148Z,43.59
2022-10-28T16:36:04.624Z,43.51
2022-10-28T16:38:12.751Z,43.25
2022-10-28T16:40:37.544Z,44.22
2022-10-28T16:42:39.407Z,43.51
2022-10-28T16:44:41.740Z,43.50
2022-10-28T16:46:44.318Z,43.68
2022-10-28T16:48:46.670Z,44.33
2022-10-28T16:50:53.651Z,44.53
2022-10-28T16:52:56.903Z,44.65
2022-10-28T16:54:59.446Z,44.08
2022-10-28T16:57:02.322Z,43.89
2022-10-28T16:59:04.824Z,44.35
2022-10-28T17:01:07.562Z,44.39
2022-10-28T17:03:16.027Z,44.41
2022-10-28T17:05:21.510Z,44.97
2022-10-28T17:07:24.375Z,44.70
2022-10-28T17:09:26.822Z,44.73
2022-10-28T17:11:29.057Z,44.77
2022-10-28T17:13:31.632Z,45.30
2022-10-28T17:15:34.277Z,45.31
2022-10-28T17:17:37.032Z,45.35
2022-10-28T17:19:40.904Z,45.57
2022-10-28T17:21:43.936Z,45.77
2022-10-28T17:23:46.711Z,45.89
2022-10-28T17:26:00.369Z,46.25
2022-10-28T17:28:02.880Z,47.04
2022-10-28T17:30:06.457Z,46.91
2022-10-28T17:32:09.277Z,47.32
2022-10-28T17:34:12.926Z,47.40
2022-10-28T17:36:15.161Z,47.81
2022-10-28T17:38:17.268Z,47.83
2022-10-28T17:40:19.415Z,47.99
2022-10-28T17:42:21.750Z,48.15
2022-10-28T17:44:23.819Z,48.12
2022-10-28T17:46:26.367Z,48.91
2022-10-28T17:48:29.345Z,48.80
2022-10-28T17:50:31.557Z,48.77
2022-10-28T17:52:37.414Z,49.58
2022-10-28T17:54:40.856Z,50.20
2022-10-28T17:56:43.023Z,50.48
2022-10-28T17:58:44.986Z,50.68
2022-10-28T18:00:47.171Z,50.93
2022-10-28T18:02:49.643Z,51.02
2022-10-28T18:04:51.849Z,51.76
2022-10-28T18:06:55.863Z,51.82
2022-10-28T18:08:58.734Z,51.86
2022-10-28T18:11:01.121Z,51.85
2022-10-28T18:13:03.425Z,52.11
2022-10-28T18:15:06.681Z,51.98
2022-10-28T18:17:08.927Z,52.96
2022-10-28T18:19:13.580Z,53.73
2022-10-28T18:21:15.754Z,53.61
2022-10-28T18:23:17.667Z,54.08
2022-10-28T18:25:20.892Z,54.63
2022-10-28T18:27:23.282Z,54.49
2022-10-28T18:29:25.611Z,55.04
2022-10-28T18:31:27.710Z,55.55
2022-10-28T18:33:30.871Z,56.00
2022-10-28T18:35:35.155Z,56.14
2022-10-28T18:37:37.450Z,56.91
2022-10-28T18:39:39.498Z,57.09
2022-10-28T18:41:43.042Z,57.09
2022-10-28T18:43:45.998Z,57.39
2022-10-28T18:45:48.331Z,57.53
2022-10-28T18:47:50.277Z,57.55
2022-10-28T18:49:52.399Z,57.83
2022-10-28T18:51:54.369Z,58.29
2022-10-28T18:53:57.512Z,58.19
2022-10-28T18:56:01.443Z,58.74
2022-10-28T18:58:03.594Z,59.09
2022-10-28T19:00:22.140Z,59.25
2022-10-28T19:02:24.672Z,58.87
2022-10-28T19:04:27.064Z,59.35
2022-10-28T19:06:32.868Z,59.41
2022-10-28T19:08:35.319Z,59.43
2022-10-28T19:10:37.549Z,59.67
2022-10-28T19:12:42.951Z,59.70
2022-10-28T19:14:47.292Z,59.94
2022-10-28T19:16:49.605Z,59.60
2022-10-28T19:18:57.620Z,59.92
2022-10-28T19:21:07.289Z,59.86
2022-10-28T19:23:10.130Z,60.14
2022-10-28T19:25:13.896Z,59.94
2022-10-28T19:27:16.339Z,60.25
2022-10-28T19:29:18.895Z,60.37
2022-10-28T19:31:23.286Z,60.61
2022-10-28T19:33:25.460Z,60.84
2022-10-28T19:35:28.349Z,60.84
2022-10-28T19:37:30.773Z,60.33
2022-10-28T19:39:35.374Z,60.61
2022-10-28T19:41:37.635Z,60.38
2022-10-28T19:43:40.229Z,60.43
2022-10-28T19:45:42.778Z,60.72
2022-10-28T19:47:45.282Z,60.80
2022-10-28T19:49:47.708Z,60.61
2022-10-28T19:51:50.329Z,61.15
2022-10-28T19:53:56.134Z,61.40
2022-10-28T19:56:00.865Z,60.93
2022-10-28T19:58:03.315Z,61.31
2022-10-28T20:00:07.015Z,61.22
2022-10-28T20:02:12.608Z,61.38
2022-10-28T20:04:15.177Z,61.54
2022-10-28T20:06:19.682Z,61.23
2022-10-28T20:08:22.257Z,61.60
2022-10-28T20:10:24.537Z,61.50
2022-10-28T20:12:28.569Z,61.87
2022-10-28T20:14:32.259Z,62.11
2022-10-28T20:16:38.050Z,62.32
2022-10-28T20:18:41.406Z,62.19
2022-10-28T20:20:45.412Z,62.44
2022-10-28T20:22:47.849Z,62.36
2022-10-28T20:24:51.147Z,62.29
2022-10-28T20:26:53.399Z,62.75
2022-10-28T20:28:56.964Z,62.63
2022-10-28T20:31:03.081Z,62.80
2022-10-28T20:33:07.268Z,62.72
2022-10-28T20:35:10.280Z,62.62
2022-10-28T20:37:12.730Z,62.70
2022-10-28T20:39:17.382Z,62.66
2022-10-28T20:41:19.588Z,63.00
2022-10-28T20:43:23.397Z,62.53
2022-10-28T20:45:25.681Z,62.63
2022-10-28T20:47:28.473Z,62.82
2022-10-28T20:49:30.879Z,63.16
2022-10-28T20:51:34.065Z,63.05
2022-10-28T20:53:36.749Z,63.19
2022-10-28T20:55:45.741Z,63.79
2022-10-28T20:57:48.138Z,63.76
2022-10-28T20:59:52.045Z,63.71
2022-10-28T21:01:54.197Z,63.73
2022-10-28T21:03:58.441Z,63.62
2022-10-28T21:06:03.613Z,63.93
2022-10-28T21:08:05.755Z,63.77
2022-10-28T21:10:08.876Z,63.68
2022-10-28T21:12:11.371Z,64.28
2022-10-28T21:14:13.532Z,64.32
2022-10-28T21:16:16.007Z,64.36
2022-10-28T21:18:19.374Z,64.27
2022-10-28T21:20:22.132Z,64.64
2022-10-28T21:22:24.314Z,65.00
2022-10-28T21:24:26.390Z,65.05
2022-10-28T21:26:28.779Z,64.86
2022-10-28T21:28:32.515Z,65.18
2022-10-28T21:30:34.869Z,64.91
2022-10-28T21:32:37.652Z,65.15
2022-10-28T21:34:39.765Z,64.81
2022-10-28T21:36:41.835Z,65.35
2022-10-28T21:38:44.230Z,65.16
2022-10-28T21:40:47.547Z,65.10
2022-10-28T21:42:52.593Z,65.17
2022-10-28T21:44:54.733Z,65.16
2022-10-28T21:46:56.863Z,64.73
2022-10-28T21:48:59.308Z,65.30
2022-10-28T21:51:03.849Z,65.18
2022-10-28T21:53:07.181Z,65.28
2022-10-28T21:55:20.303Z,65.00
2022-10-28T21:57:29.560Z,65.39
2022-10-28T21:59:31.791Z,65.03
2022-10-28T22:01:34.117Z,65.22
2022-10-28T22:03:36.962Z,64.68
2022-10-28T22:05:39.685Z,64.98
2022-10-28T22:07:42.104Z,64.93
2022-10-28T22:09:44.459Z,64.94
2022-10-28T22:11:46.687Z,65.27
2022-10-28T22:13:55.693Z,65.41
2022-10-28T22:16:00.235Z,64.98
2022-10-28T22:18:02.317Z,64.77
2022-10-28T22:20:07.707Z,64.87
2022-10-28T22:22:09.658Z,65.49
2022-10-28T22:24:11.629Z,65.27
2022-10-28T22:26:17.143Z,65.65
2022-10-28T22:28:19.176Z,65.49
2022-10-28T22:30:21.394Z,66.41
2022-10-28T22:32:23.210Z,66.27
2022-10-28T22:34:24.934Z,66.57
2022-10-28T22:36:29.312Z,66.49
2022-10-28T22:38:31.249Z,66.23
2022-10-28T22:40:32.989Z,66.59
2022-10-28T22:42:35.377Z,66.20
2022-10-28T22:44:37.092Z,67.01
2022-10-28T22:46:40.809Z,66.44
2022-10-28T22:48:42.651Z,66.96
2022-10-28T22:50:44.406Z,66.85
2022-10-28T22:52:46.181Z,67.05
2022-10-28T22:54:47.986Z,66.67
2022-10-28T22:56:49.685Z,67.14
2022-10-28T22:58:55.424Z,66.88
2022-10-28T23:01:07.567Z,67.15
2022-10-28T23:03:09.292Z,67.28
2022-10-28T23:05:25.891Z,67.09
2022-10-28T23:07:40.831Z,66.94
2022-10-28T23:09:51.072Z,66.84
2022-10-28T23:12:17.056Z,66.98
2022-10-28T23:14:27.326Z,67.11
2022-10-28T23:16:41.937Z,67.24
2022-10-28T23:18:50.311Z,67.45
2022-10-28T23:20:58.247Z,67.96
2022-10-28T23:23:06.444Z,67.70
2022-10-28T23:25:17.211Z,68.09
2022-10-28T23:27:31.223Z,67.52
2022-10-28T23:29:36.542Z,67.51
2022-10-28T23:31:53.945Z,67.98
2022-10-28T23:34:02.756Z,68.44
2022-10-28T23:36:30.916Z,68.12
2022-10-28T23:38:47.517Z,68.13
2022-10-28T23:41:11.196Z,68.50
2022-10-28T23:43:17.376Z,68.34
2022-10-28T23:45:22.383Z,68.28
2022-10-28T23:47:35.510Z,68.36
2022-10-28T23:49:38.041Z,68.70
2022-10-28T23:51:52.782Z,68.28
2022-10-28T23:54:00.667Z,68.32
2022-10-28T23:56:10.513Z,68.38
2022-10-28T23:58:20.257Z,68.05
